createdAt,value
2017-09-28T00:02:16.820Z,58.80
2017-09-28T00:04:44.286Z,79.67
2017-09-28T00:07:11.751Z,66.03
2017-09-28T00:09:39.239Z,64.73
2017-09-28T00:12:06.696Z,55.00
2017-09-28T00:14:34.171Z,62.13
2017-09-28T00:17:01.663Z,57.67
2017-09-28T00:19:29.143Z,59.00
2017-09-28T00:21:56.628Z,62.20
2017-09-28T00:24:24.137Z,63.67
2017-09-28T00:26:51.591Z,71.53
2017-09-28T00:29:19.046Z,66.20
2017-09-28T00:31:46.550Z,69.33
2017-09-28T00:34:14.005Z,62.97
2017-09-28T00:36:41.474Z,78.53
2017-09-28T00:39:08.954Z,95.87
2017-09-28T00:41:36.421Z,121.93
2017-09-28T00:44:03.882Z,138.10
2017-09-28T00:46:31.373Z,159.47
2017-09-28T00:48:58.842Z,248.43
2017-09-28T00:51:26.313Z,279.00
2017-09-28T00:53:53.806Z,263.27
2017-09-28T00:56:21.290Z,188.90
2017-09-28T00:58:48.754Z,174.73
2017-09-28T01:01:16.243Z,196.90
2017-09-28T01:03:43.726Z,113.67
2017-09-28T01:06:11.186Z,106.13
2017-09-28T01:08:38.686Z,99.63
2017-09-28T01:11:06.146Z,112.03
2017-09-28T01:13:33.607Z,95.10
2017-09-28T01:16:01.086Z,74.13
2017-09-28T01:18:28.546Z,76.83
2017-09-28T01:20:56.018Z,70.20
2017-09-28T01:23:23.499Z,76.60
2017-09-28T01:25:50.970Z,66.17
2017-09-28T01:28:18.443Z,62.57
2017-09-28T01:30:45.930Z,53.10
2017-09-28T01:33:13.399Z,66.77
2017-09-28T01:35:40.863Z,69.03
2017-09-28T01:38:08.359Z,53.47
2017-09-28T01:40:35.820Z,56.23
2017-09-28T01:43:03.278Z,57.57
2017-09-28T01:45:30.762Z,63.60
2017-09-28T01:47:58.234Z,58.97
2017-09-28T01:50:25.706Z,58.93
2017-09-28T01:52:53.227Z,61.40
2017-09-28T01:55:20.692Z,52.07
2017-09-28T01:57:48.150Z,70.97
2017-09-28T02:00:15.622Z,60.93
2017-09-28T02:02:43.085Z,63.60
2017-09-28T02:05:10.574Z,77.47
2017-09-28T02:07:38.047Z,58.53
2017-09-28T02:10:05.506Z,71.80
2017-09-28T02:12:32.989Z,73.20
2017-09-28T02:15:00.450Z,60.47
2017-09-28T02:17:27.935Z,62.83
2017-09-28T02:19:55.427Z,80.60
2017-09-28T02:22:22.891Z,81.67
2017-09-28T02:24:50.374Z,80.57
2017-09-28T02:27:17.862Z,67.93
2017-09-28T02:29:45.324Z,57.07
2017-09-28T02:32:12.802Z,61.43
2017-09-28T02:34:40.280Z,68.17
2017-09-28T02:37:07.750Z,76.27
2017-09-28T02:39:35.233Z,71.10
2017-09-28T02:42:02.695Z,69.97
2017-09-28T02:44:30.156Z,63.23
2017-09-28T02:46:57.642Z,71.50
2017-09-28T02:49:25.108Z,63.57
2017-09-28T02:51:52.624Z,64.70
2017-09-28T02:54:20.107Z,67.23
2017-09-28T02:56:47.570Z,60.60
2017-09-28T02:59:15.070Z,67.40
2017-09-28T03:01:42.528Z,71.53
2017-09-28T03:04:09.998Z,67.10
2017-09-28T03:06:37.482Z,68.70
2017-09-28T03:09:04.943Z,66.27
2017-09-28T03:11:32.424Z,62.07
2017-09-28T03:13:59.890Z,60.37
2017-09-28T03:16:27.350Z,62.10
2017-09-28T03:18:54.830Z,65.50
2017-09-28T03:21:22.297Z,69.97
2017-09-28T03:23:49.762Z,62.33
2017-09-28T03:26:17.248Z,68.27
2017-09-28T03:28:44.712Z,65.37
2017-09-28T03:31:12.178Z,61.97
2017-09-28T03:33:39.662Z,57.83
2017-09-28T03:36:07.116Z,81.63
2017-09-28T03:38:34.597Z,77.17
2017-09-28T03:41:02.074Z,74.07
2017-09-28T03:43:29.528Z,67.33
2017-09-28T03:45:57.010Z,73.80
2017-09-28T03:48:24.466Z,77.93
2017-09-28T03:50:51.934Z,74.70
2017-09-28T03:53:19.423Z,72.50
2017-09-28T03:55:46.902Z,78.77
2017-09-28T03:58:14.382Z,74.17
2017-09-28T04:00:41.852Z,66.33
2017-09-28T04:03:09.276Z,68.00
2017-09-28T04:05:36.786Z,76.80
2017-09-28T04:08:04.255Z,75.27
2017-09-28T04:10:31.714Z,77.60
2017-09-28T04:12:59.195Z,83.70
2017-09-28T04:15:26.654Z,74.77
2017-09-28T04:17:54.165Z,70.67
2017-09-28T04:20:21.630Z,66.70
2017-09-28T04:22:49.095Z,66.03
2017-09-28T04:25:16.591Z,74.53
2017-09-28T04:27:44.050Z,71.37
2017-09-28T04:30:11.506Z,72.00
2017-09-28T04:32:38.991Z,83.33
2017-09-28T04:35:06.446Z,66.73
2017-09-28T04:37:33.898Z,66.70
2017-09-28T04:40:01.375Z,69.80
2017-09-28T04:42:28.834Z,72.53
2017-09-28T04:44:56.294Z,86.53
2017-09-28T04:47:23.783Z,68.03
2017-09-28T04:49:51.239Z,68.37
2017-09-28T04:52:18.694Z,71.03
2017-09-28T04:54:46.177Z,65.83
2017-09-28T04:57:13.647Z,75.40
2017-09-28T04:59:41.131Z,67.77
2017-09-28T05:02:08.587Z,66.33
2017-09-28T05:04:36.038Z,68.90
2017-09-28T05:07:03.518Z,70.20
2017-09-28T05:09:30.978Z,71.00
2017-09-28T05:11:58.470Z,68.23
2017-09-28T05:14:26.006Z,64.27
2017-09-28T05:16:53.555Z,71.57
2017-09-28T05:19:21.067Z,70.30
2017-09-28T05:21:48.550Z,81.40
2017-09-28T05:24:19.811Z,64.00
2017-09-28T05:26:47.274Z,62.57
2017-09-28T05:29:14.754Z,73.53
2017-09-28T05:31:42.210Z,85.13
2017-09-28T05:34:09.666Z,61.73
2017-09-28T05:36:37.138Z,63.90
2017-09-28T05:39:04.589Z,60.67
2017-09-28T05:41:32.074Z,59.10
2017-09-28T05:43:59.555Z,71.70
2017-09-28T05:46:27.009Z,71.10
2017-09-28T05:48:54.486Z,67.30
2017-09-28T05:51:21.942Z,66.80
2017-09-28T05:53:49.422Z,68.27
2017-09-28T05:56:16.898Z,62.40
2017-09-28T05:58:44.354Z,63.70
2017-09-28T06:01:11.835Z,77.63
2017-09-28T06:03:39.299Z,73.40
2017-09-28T06:06:06.778Z,51.57
2017-09-28T06:08:34.237Z,62.97
2017-09-28T06:11:01.695Z,59.00
2017-09-28T06:13:29.181Z,59.00
2017-09-28T06:15:56.638Z,67.23
2017-09-28T06:18:24.094Z,66.70
2017-09-28T06:20:51.566Z,65.33
2017-09-28T06:23:19.052Z,72.73
2017-09-28T06:25:46.511Z,64.47
2017-09-28T06:28:13.974Z,82.30
2017-09-28T06:30:41.455Z,71.97
2017-09-28T06:33:08.928Z,67.13
2017-09-28T06:35:36.381Z,63.53
2017-09-28T06:38:03.862Z,65.43
2017-09-28T06:40:31.317Z,65.83
2017-09-28T06:42:58.770Z,67.30
2017-09-28T06:45:26.247Z,58.40
2017-09-28T06:47:53.707Z,74.63
2017-09-28T06:50:21.266Z,56.07
2017-09-28T06:52:48.737Z,59.73
2017-09-28T06:55:16.218Z,54.50
2017-09-28T06:57:43.674Z,67.20
2017-09-28T07:00:11.130Z,58.93
2017-09-28T07:02:38.609Z,58.63
2017-09-28T07:05:06.079Z,74.10
2017-09-28T07:07:33.543Z,53.90
2017-09-28T07:10:01.026Z,57.30
2017-09-28T07:12:28.478Z,55.33
2017-09-28T07:14:55.934Z,57.90
2017-09-28T07:17:23.426Z,52.53
2017-09-28T07:19:50.882Z,73.40
2017-09-28T07:22:18.335Z,57.63
2017-09-28T07:24:45.805Z,58.53
2017-09-28T07:27:13.266Z,56.57
2017-09-28T07:29:40.746Z,66.87
2017-09-28T07:32:08.243Z,52.07
2017-09-28T07:34:35.706Z,49.43
2017-09-28T07:37:03.181Z,50.33
2017-09-28T07:39:30.633Z,65.77
2017-09-28T07:41:58.110Z,58.07
2017-09-28T07:44:25.582Z,58.10
2017-09-28T07:46:53.041Z,60.37
2017-09-28T07:49:20.572Z,60.30
2017-09-28T07:51:48.035Z,56.20
2017-09-28T07:54:15.496Z,61.70
2017-09-28T07:56:42.990Z,62.77
2017-09-28T07:59:10.455Z,65.33
2017-09-28T08:01:37.911Z,60.20
2017-09-28T08:04:05.392Z,52.03
2017-09-28T08:06:32.846Z,52.70
2017-09-28T08:09:00.326Z,49.97
2017-09-28T08:11:27.782Z,52.53
2017-09-28T08:13:55.238Z,55.03
2017-09-28T08:16:22.714Z,56.30
2017-09-28T08:18:50.175Z,53.73
2017-09-28T08:21:17.653Z,52.97
2017-09-28T08:23:45.126Z,52.53
2017-09-28T08:26:12.613Z,51.80
2017-09-28T08:28:40.106Z,43.17
2017-09-28T08:31:07.575Z,50.27
2017-09-28T08:33:35.042Z,52.27
2017-09-28T08:36:02.518Z,49.83
2017-09-28T08:38:29.970Z,46.60
2017-09-28T08:40:57.426Z,50.47
2017-09-28T08:43:24.907Z,54.50
2017-09-28T08:45:52.369Z,49.20
2017-09-28T08:48:19.835Z,47.57
2017-09-28T08:50:47.315Z,52.10
2017-09-28T08:53:14.776Z,56.03
2017-09-28T08:55:42.232Z,81.97
2017-09-28T08:58:09.705Z,41.50
2017-09-28T09:00:37.182Z,52.00
2017-09-28T09:03:04.646Z,45.87
2017-09-28T09:05:32.131Z,57.77
2017-09-28T09:07:59.590Z,47.00
2017-09-28T09:10:27.045Z,57.20
2017-09-28T09:12:54.521Z,40.77
2017-09-28T09:15:21.986Z,43.53
2017-09-28T09:17:49.469Z,60.03
2017-09-28T09:20:16.922Z,49.00
2017-09-28T09:22:44.378Z,50.63
2017-09-28T09:25:11.857Z,49.33
2017-09-28T09:27:39.310Z,46.90
2017-09-28T09:30:06.766Z,61.03
2017-09-28T09:32:34.265Z,48.47
2017-09-28T09:35:01.722Z,56.27
2017-09-28T09:37:29.198Z,61.23
2017-09-28T09:39:56.657Z,48.77
2017-09-28T09:42:24.130Z,48.00
2017-09-28T09:44:51.618Z,39.37
2017-09-28T09:47:19.073Z,44.90
2017-09-28T09:49:46.527Z,57.40
2017-09-28T09:52:14.003Z,44.77
2017-09-28T09:54:41.458Z,40.63
2017-09-28T09:57:08.939Z,38.00
2017-09-28T09:59:36.403Z,37.10
2017-09-28T10:02:03.857Z,38.40
2017-09-28T10:04:31.329Z,36.37
2017-09-28T10:07:03.484Z,37.93
2017-09-28T10:09:33.077Z,45.23
2017-09-28T10:12:16.198Z,43.17
2017-09-28T10:14:45.494Z,36.20
2017-09-28T10:17:12.954Z,38.93
2017-09-28T10:19:40.432Z,44.90
2017-09-28T10:22:07.895Z,38.17
2017-09-28T10:24:35.351Z,40.33
2017-09-28T10:27:02.833Z,40.30
2017-09-28T10:29:30.289Z,38.90
2017-09-28T10:31:57.774Z,43.17
2017-09-28T10:34:25.229Z,39.33
2017-09-28T10:36:52.694Z,48.77
2017-09-28T10:39:20.178Z,45.73
2017-09-28T10:41:47.668Z,45.17
2017-09-28T10:44:15.126Z,39.10
2017-09-28T10:46:42.582Z,37.80
2017-09-28T10:49:10.074Z,48.20
2017-09-28T10:51:37.539Z,35.17
2017-09-28T10:54:04.994Z,34.50
2017-09-28T10:56:32.469Z,35.57
2017-09-28T10:58:59.971Z,30.93
2017-09-28T11:01:27.488Z,32.17
2017-09-28T11:03:54.959Z,30.33
2017-09-28T11:06:22.448Z,34.83
2017-09-28T11:08:49.915Z,35.47
2017-09-28T11:11:17.370Z,36.33
2017-09-28T11:13:44.933Z,36.73
2017-09-28T11:16:12.389Z,27.87
2017-09-28T11:18:39.870Z,31.33
2017-09-28T11:21:07.350Z,37.10
2017-09-28T11:23:34.830Z,38.20
2017-09-28T11:26:02.293Z,31.40
2017-09-28T11:28:29.766Z,38.90
2017-09-28T11:30:57.243Z,33.93
2017-09-28T11:33:24.702Z,25.80
2017-09-28T11:35:52.154Z,29.63
2017-09-28T11:38:19.647Z,32.50
2017-09-28T11:40:47.106Z,24.13
2017-09-28T11:43:14.565Z,28.30
2017-09-28T11:45:42.053Z,26.73
2017-09-28T11:48:09.505Z,28.27
2017-09-28T11:50:36.958Z,33.27
2017-09-28T11:53:04.443Z,29.87
2017-09-28T11:55:31.902Z,23.80
2017-09-28T11:57:59.382Z,28.67
2017-09-28T12:00:26.838Z,30.73
2017-09-28T12:02:54.297Z,27.00
2017-09-28T12:05:21.774Z,28.23
2017-09-28T12:07:49.361Z,24.93
2017-09-28T12:10:16.818Z,26.70
2017-09-28T12:12:44.299Z,26.17
2017-09-28T12:15:11.758Z,21.73
2017-09-28T12:17:39.214Z,27.87
2017-09-28T12:20:06.703Z,22.97
2017-09-28T12:22:34.158Z,25.27
2017-09-28T12:25:01.638Z,26.37
2017-09-28T12:27:29.127Z,24.37
2017-09-28T12:29:56.610Z,22.50
2017-09-28T12:32:24.074Z,28.83
2017-09-28T12:34:51.558Z,28.63
2017-09-28T12:37:19.064Z,21.73
2017-09-28T12:39:46.546Z,23.47
2017-09-28T12:42:14.001Z,27.53
2017-09-28T12:44:41.462Z,23.07
2017-09-28T12:47:08.945Z,26.53
2017-09-28T12:49:36.434Z,22.63
2017-09-28T12:52:03.910Z,23.83
2017-09-28T12:54:31.370Z,34.63
2017-09-28T12:56:58.846Z,20.87
2017-09-28T12:59:26.298Z,22.93
2017-09-28T13:01:53.770Z,29.27
2017-09-28T13:04:21.259Z,19.20
2017-09-28T13:06:48.731Z,21.10
2017-09-28T13:09:16.182Z,25.07
2017-09-28T13:11:43.658Z,19.83
2017-09-28T13:14:11.121Z,21.47
2017-09-28T13:16:38.590Z,21.90
2017-09-28T13:19:06.067Z,25.93
2017-09-28T13:21:33.522Z,26.00
2017-09-28T13:24:01.007Z,17.50
2017-09-28T13:26:28.522Z,19.23
2017-09-28T13:28:56.012Z,17.20
2017-09-28T13:31:23.490Z,24.13
2017-09-28T13:33:50.982Z,21.70
2017-09-28T13:36:19.307Z,25.83
2017-09-28T13:38:46.803Z,19.63
2017-09-28T13:41:14.360Z,25.63
2017-09-28T13:43:41.887Z,22.07
2017-09-28T13:46:09.431Z,17.43
2017-09-28T13:48:36.930Z,23.47
2017-09-28T13:51:04.407Z,15.33
2017-09-28T13:53:31.891Z,18.80
2017-09-28T13:55:59.356Z,19.47
2017-09-28T13:58:26.812Z,22.00
2017-09-28T14:00:54.283Z,12.93
2017-09-28T14:03:21.738Z,14.50
2017-09-28T14:05:49.222Z,20.80
2017-09-28T14:08:16.682Z,25.37
2017-09-28T14:10:44.186Z,14.93
2017-09-28T14:13:11.664Z,13.80
2017-09-28T14:15:39.123Z,16.13
2017-09-28T14:18:06.606Z,17.00
2017-09-28T14:20:34.107Z,13.93
2017-09-28T14:23:01.564Z,14.30
2017-09-28T14:25:29.046Z,11.30
2017-09-28T14:27:56.526Z,12.17
2017-09-28T14:30:24.012Z,17.73
2017-09-28T14:32:51.491Z,13.90
2017-09-28T14:35:18.949Z,16.97
2017-09-28T14:37:46.406Z,14.90
2017-09-28T14:40:13.878Z,13.87
2017-09-28T14:42:41.336Z,15.30
2017-09-28T14:45:08.814Z,13.80
2017-09-28T14:47:36.270Z,16.23
2017-09-28T14:50:03.815Z,18.80
2017-09-28T14:52:31.294Z,13.00
2017-09-28T14:54:58.754Z,15.67
2017-09-28T14:57:26.216Z,20.00
2017-09-28T14:59:53.701Z,19.63
2017-09-28T15:02:21.158Z,17.40
2017-09-28T15:04:48.622Z,28.00
2017-09-28T15:07:16.098Z,25.40
2017-09-28T15:09:43.555Z,23.77
2017-09-28T15:12:11.039Z,27.93
2017-09-28T15:14:38.514Z,21.80
2017-09-28T15:17:05.976Z,15.83
2017-09-28T15:19:33.459Z,17.30
2017-09-28T15:22:00.918Z,19.90
2017-09-28T15:24:28.384Z,15.00
2017-09-28T15:26:55.863Z,20.73
2017-09-28T15:29:23.321Z,16.20
2017-09-28T15:31:50.815Z,19.33
2017-09-28T15:34:18.299Z,17.67
2017-09-28T15:36:45.766Z,19.27
2017-09-28T15:39:13.250Z,20.57
2017-09-28T15:41:40.709Z,14.13
2017-09-28T15:44:08.163Z,20.97
2017-09-28T15:46:35.646Z,16.70
2017-09-28T15:49:03.098Z,15.80
2017-09-28T15:51:30.554Z,17.07
2017-09-28T15:53:58.034Z,14.47
2017-09-28T15:56:25.502Z,24.33
2017-09-28T15:58:52.961Z,19.60
2017-09-28T16:01:20.442Z,20.70
2017-09-28T16:03:47.894Z,17.80
2017-09-28T16:06:15.374Z,24.40
2017-09-28T16:08:42.830Z,18.93
2017-09-28T16:11:10.286Z,17.47
2017-09-28T16:13:37.763Z,15.80
2017-09-28T16:16:05.223Z,14.63
2017-09-28T16:18:32.686Z,19.80
2017-09-28T16:21:00.178Z,24.23
2017-09-28T16:23:27.639Z,20.40
2017-09-28T16:25:55.122Z,18.70
2017-09-28T16:28:22.582Z,16.93
2017-09-28T16:30:50.042Z,22.43
2017-09-28T16:33:17.526Z,24.77
2017-09-28T16:35:44.992Z,65.03
2017-09-28T16:38:12.459Z,24.70
2017-09-28T16:40:39.956Z,22.50
2017-09-28T16:43:07.414Z,75.93
2017-09-28T16:45:35.302Z,35.17
2017-09-28T16:48:03.450Z,25.60
2017-09-28T16:50:30.921Z,35.73
2017-09-28T16:52:58.380Z,24.20
2017-09-28T16:55:25.874Z,22.27
2017-09-28T16:57:53.343Z,24.93
2017-09-28T17:00:20.826Z,23.37
2017-09-28T17:02:48.292Z,26.90
2017-09-28T17:05:15.758Z,21.60
2017-09-28T17:07:43.235Z,24.20
2017-09-28T17:10:10.812Z,28.90
2017-09-28T17:12:38.294Z,34.33
2017-09-28T17:15:05.775Z,25.23
2017-09-28T17:17:33.239Z,22.53
2017-09-28T17:20:00.731Z,22.90
2017-09-28T17:22:28.201Z,21.33
2017-09-28T17:24:55.691Z,24.00
2017-09-28T17:27:23.166Z,24.70
2017-09-28T17:29:50.630Z,25.40
2017-09-28T17:32:18.114Z,29.20
2017-09-28T17:34:45.598Z,36.70
2017-09-28T17:37:13.055Z,22.47
2017-09-28T17:39:40.542Z,30.77
2017-09-28T17:42:07.994Z,30.20
2017-09-28T17:44:35.463Z,21.27
2017-09-28T17:47:02.943Z,24.43
2017-09-28T17:49:30.417Z,21.00
2017-09-28T17:51:57.874Z,28.10
2017-09-28T17:54:25.359Z,30.70
2017-09-28T17:56:52.823Z,29.20
2017-09-28T17:59:20.306Z,20.40
2017-09-28T18:01:47.772Z,20.17
2017-09-28T18:04:15.251Z,26.53
2017-09-28T18:06:42.739Z,19.60
2017-09-28T18:09:10.205Z,22.47
2017-09-28T18:11:37.674Z,24.30
2017-09-28T18:14:05.163Z,31.17
2017-09-28T18:16:32.622Z,29.53
2017-09-28T18:19:00.935Z,29.83
2017-09-28T18:21:28.427Z,27.40
2017-09-28T18:23:55.890Z,23.20
2017-09-28T18:26:23.355Z,29.80
2017-09-28T18:28:50.846Z,37.60
2017-09-28T18:31:18.461Z,27.30
2017-09-28T18:33:46.035Z,26.93
2017-09-28T18:36:13.526Z,31.87
2017-09-28T18:38:41.002Z,28.13
2017-09-28T18:41:08.495Z,29.17
2017-09-28T18:43:35.995Z,28.67
2017-09-28T18:46:03.482Z,34.43
2017-09-28T18:48:30.999Z,32.67
2017-09-28T18:50:58.496Z,44.27
2017-09-28T18:53:26.002Z,22.07
2017-09-28T18:55:53.473Z,24.30
2017-09-28T18:58:20.981Z,29.17
2017-09-28T19:00:48.573Z,25.27
2017-09-28T19:03:16.115Z,35.53
2017-09-28T19:05:43.787Z,29.03
2017-09-28T19:08:11.350Z,25.13
2017-09-28T19:10:38.914Z,36.43
2017-09-28T19:13:06.416Z,29.63
2017-09-28T19:15:34.215Z,31.70
2017-09-28T19:18:01.740Z,30.07
2017-09-28T19:20:29.299Z,25.40
2017-09-28T19:22:56.867Z,27.33
2017-09-28T19:25:24.462Z,26.20
2017-09-28T19:27:52.264Z,39.73
2017-09-28T19:30:19.861Z,29.83
2017-09-28T19:32:47.622Z,32.53
2017-09-28T19:35:15.259Z,25.07
2017-09-28T19:37:44.158Z,29.23
2017-09-28T19:40:14.933Z,33.40
2017-09-28T19:42:42.461Z,28.40
2017-09-28T19:45:20.610Z,37.13
2017-09-28T19:47:48.865Z,58.10
2017-09-28T19:50:16.506Z,56.70
2017-09-28T19:52:44.390Z,60.97
2017-09-28T19:55:12.390Z,38.17
2017-09-28T19:57:39.974Z,70.83
2017-09-28T20:00:07.486Z,35.47
2017-09-28T20:02:35.015Z,39.63
2017-09-28T20:05:02.492Z,39.77
2017-09-28T20:07:29.975Z,28.37
2017-09-28T20:09:57.456Z,36.87
2017-09-28T20:12:24.931Z,33.90
2017-09-28T20:14:52.424Z,32.47
2017-09-28T20:17:19.887Z,37.47
2017-09-28T20:19:47.379Z,32.37
2017-09-28T20:22:14.838Z,34.83
2017-09-28T20:24:42.295Z,34.93
2017-09-28T20:27:09.796Z,34.43
2017-09-28T20:29:37.290Z,28.03
2017-09-28T20:32:04.772Z,32.53
2017-09-28T20:34:32.251Z,24.87
2017-09-28T20:36:59.743Z,37.13
2017-09-28T20:39:27.276Z,31.43
2017-09-28T20:41:54.788Z,29.00
2017-09-28T20:44:22.275Z,33.20
2017-09-28T20:46:49.772Z,30.03
2017-09-28T20:49:17.256Z,29.80
2017-09-28T20:51:44.749Z,40.00
2017-09-28T20:54:12.252Z,27.63
2017-09-28T20:56:39.741Z,34.77
2017-09-28T20:59:07.246Z,27.70
2017-09-28T21:01:34.742Z,31.67
2017-09-28T21:04:02.221Z,30.43
2017-09-28T21:06:29.706Z,30.90
2017-09-28T21:08:57.186Z,32.97
2017-09-28T21:11:24.669Z,31.60
2017-09-28T21:13:52.180Z,30.43
2017-09-28T21:16:19.666Z,32.93
2017-09-28T21:18:47.175Z,29.30
2017-09-28T21:21:14.682Z,38.07
2017-09-28T21:23:42.150Z,29.80
2017-09-28T21:26:09.630Z,26.93
2017-09-28T21:28:37.163Z,27.43
2017-09-28T21:31:04.631Z,31.80
2017-09-28T21:33:32.110Z,28.57
2017-09-28T21:35:59.623Z,39.90
2017-09-28T21:38:27.107Z,31.20
2017-09-28T21:40:54.606Z,26.33
2017-09-28T21:43:22.086Z,29.40
2017-09-28T21:45:49.562Z,33.93
2017-09-28T21:48:17.060Z,30.63
2017-09-28T21:50:44.538Z,33.57
2017-09-28T21:53:12.003Z,28.70
2017-09-28T21:55:39.510Z,31.37
2017-09-28T21:58:06.971Z,36.27
2017-09-28T22:00:34.515Z,27.03
2017-09-28T22:03:01.989Z,37.00
2017-09-28T22:05:29.466Z,28.37
2017-09-28T22:07:56.958Z,34.50
2017-09-28T22:10:24.414Z,33.40
2017-09-28T22:12:51.918Z,32.93
2017-09-28T22:15:19.382Z,28.73
2017-09-28T22:17:46.839Z,35.50
2017-09-28T22:20:14.329Z,37.70
2017-09-28T22:22:41.811Z,30.43
2017-09-28T22:25:09.266Z,29.83
2017-09-28T22:27:36.749Z,34.13
2017-09-28T22:30:04.208Z,29.63
2017-09-28T22:32:31.699Z,28.63
2017-09-28T22:34:59.195Z,29.63
2017-09-28T22:37:26.658Z,28.53
2017-09-28T22:39:54.148Z,46.87
2017-09-28T22:42:21.603Z,56.20
2017-09-28T22:44:49.079Z,58.73
2017-09-28T22:47:16.562Z,84.60
2017-09-28T22:49:44.031Z,104.47
2017-09-28T22:52:11.518Z,77.63
2017-09-28T22:54:39.008Z,110.90
2017-09-28T22:57:06.470Z,127.00
2017-09-28T22:59:33.954Z,137.80
2017-09-28T23:02:01.410Z,97.67
2017-09-28T23:04:28.898Z,84.50
2017-09-28T23:06:57.608Z,77.93
2017-09-28T23:09:25.122Z,76.13
2017-09-28T23:11:52.615Z,68.87
2017-09-28T23:14:20.126Z,77.13
2017-09-28T23:16:47.627Z,91.47
2017-09-28T23:19:15.115Z,128.30
2017-09-28T23:21:42.612Z,136.17
2017-09-28T23:24:10.096Z,235.00
2017-09-28T23:26:37.582Z,245.40
2017-09-28T23:29:05.066Z,168.00
2017-09-28T23:31:32.544Z,176.20
2017-09-28T23:34:00.035Z,89.73
2017-09-28T23:36:27.501Z,61.77
2017-09-28T23:38:54.966Z,64.83
2017-09-28T23:41:22.446Z,51.73
2017-09-28T23:43:49.919Z,62.33
2017-09-28T23:46:17.375Z,53.13
2017-09-28T23:48:44.851Z,43.50
2017-09-28T23:51:12.311Z,47.90
2017-09-28T23:53:39.778Z,48.37
2017-09-28T23:56:07.272Z,54.20
2017-09-28T23:58:34.734Z,85.23
